Okay, Oklahoma
Current Conditions -  °F | °C
As of 11:53 PM on Thursday 27 Nov 2014 (Local Time) from KMKO Reporting Station
Clear Clear  
Wind Chill: 28°   Ceiling: Unl
Heat Index: 33°   Visibility: 10mi
Dew Point: 26°   Wind: 6mph
Humidity: 75%   Direction: 160°SSE
Pressure: 30.32"   Gusts: NA
Location:  35.85°N, 95.32°W
Report Text: KMKO 280553Z AUTO 16005KT 10SM CLR 01/M03 A3032 RMK AO2 SLP269 T00061033 10044 20006 400891039 58022
Loading
Personal Weather Stations






























Interactive Weather Map New forecast layout! Learn more

10-Day Weather Forecast

Advertisements
Track Severe Weather on mobile